AAL317 LPPT-KBOS
Flight info
| Callsign | AAL317 |
|---|---|
| Flight time | N/A |
| Altitude | 34000 |
| Route | ELNUB DCT ERPES/M083F340 DCT 4130N02000W 43N030W/M083F360 44N040W 44N050W DCT JEBBY DCT CARAC/N0484F380 N30B KANNI DCT EURRO OOSHN5 |
| Aircraft | B77W/H-SDE1E2E3FGHIJ2J3J4J5M1RWXY/LB1D1 |
Departure
| Time | N/A |
|---|---|
| Airport | Lisbon Humberto Delgado Airport (LPPT) |
Arrival
| Time | 2026-05-03 22:41 |
|---|---|
| Airport | Boston Logan International Airport (KBOS) |
| Time | Latitude | Longitude | Altitude | Speed | Heading |
|---|---|---|---|---|---|
| 2026-05-03 20:15 | 43.40154 | -55.57370 | 35907 ft | 406 kts | 257° |
| 2026-05-03 20:15 | 43.39135 | -55.65012 | 35909 ft | 405 kts | 257° |
| 2026-05-03 20:16 | 43.38121 | -55.72579 | 35906 ft | 405 kts | 257° |
| 2026-05-03 20:16 | 43.37095 | -55.80210 | 35908 ft | 405 kts | 257° |
| 2026-05-03 20:17 | 43.36063 | -55.87817 | 35907 ft | 405 kts | 257° |
| 2026-05-03 20:17 | 43.35028 | -55.95423 | 35907 ft | 405 kts | 257° |
| 2026-05-03 20:18 | 43.33993 | -56.02983 | 35908 ft | 405 kts | 256° |
| 2026-05-03 20:18 | 43.32948 | -56.10585 | 35908 ft | 405 kts | 256° |
| 2026-05-03 20:19 | 43.31897 | -56.18195 | 35905 ft | 405 kts | 256° |
| 2026-05-03 20:19 | 43.30839 | -56.25803 | 35866 ft | 406 kts | 256° |
| 2026-05-03 20:20 | 43.29774 | -56.33433 | 35759 ft | 408 kts | 256° |
| 2026-05-03 20:20 | 43.28697 | -56.41096 | 35669 ft | 410 kts | 256° |
| 2026-05-03 20:21 | 43.27619 | -56.48732 | 35586 ft | 411 kts | 256° |
| 2026-05-03 20:21 | 43.26531 | -56.56413 | 35564 ft | 409 kts | 256° |
| 2026-05-03 20:22 | 43.25441 | -56.64076 | 35553 ft | 408 kts | 256° |
| 2026-05-03 20:22 | 43.24533 | -56.70425 | 35554 ft | 408 kts | 256° |
| 2026-05-03 20:23 | 43.23434 | -56.78058 | 35547 ft | 408 kts | 256° |
| 2026-05-03 20:23 | 43.22328 | -56.85692 | 35543 ft | 408 kts | 256° |
| 2026-05-03 20:24 | 43.21220 | -56.93325 | 35535 ft | 408 kts | 255° |
| 2026-05-03 20:24 | 43.20106 | -57.00963 | 35533 ft | 409 kts | 255° |
| 2026-05-03 20:25 | 43.18982 | -57.08612 | 35522 ft | 410 kts | 255° |
| 2026-05-03 20:25 | 43.17853 | -57.16277 | 35521 ft | 410 kts | 255° |
| 2026-05-03 20:26 | 43.16719 | -57.23940 | 35516 ft | 410 kts | 255° |
| 2026-05-03 20:26 | 43.15582 | -57.31570 | 35502 ft | 411 kts | 255° |
| 2026-05-03 20:27 | 43.14436 | -57.39223 | 35498 ft | 411 kts | 255° |
| 2026-05-03 20:27 | 43.13285 | -57.46895 | 35498 ft | 411 kts | 255° |
| 2026-05-03 20:28 | 43.12128 | -57.54554 | 35486 ft | 411 kts | 255° |
| 2026-05-03 20:28 | 43.10966 | -57.62216 | 35491 ft | 411 kts | 255° |
| 2026-05-03 20:29 | 43.09800 | -57.69866 | 35466 ft | 410 kts | 254° |
| 2026-05-03 20:29 | 43.08629 | -57.77520 | 35455 ft | 411 kts | 254° |
| 2026-05-03 20:30 | 43.07495 | -57.85136 | 35449 ft | 412 kts | 257° |
| 2026-05-03 20:30 | 43.07014 | -57.92982 | 35447 ft | 416 kts | 263° |
| 2026-05-03 20:31 | 43.06837 | -58.00922 | 35443 ft | 417 kts | 263° |
| 2026-05-03 20:31 | 43.06636 | -58.08841 | 35428 ft | 417 kts | 262° |
| 2026-05-03 20:32 | 43.06426 | -58.16722 | 35431 ft | 416 kts | 262° |
| 2026-05-03 20:32 | 43.06207 | -58.24651 | 35420 ft | 417 kts | 262° |
| 2026-05-03 20:33 | 43.05984 | -58.32565 | 35422 ft | 417 kts | 262° |
| 2026-05-03 20:33 | 43.05756 | -58.40493 | 35414 ft | 417 kts | 262° |
| 2026-05-03 20:34 | 43.05521 | -58.48438 | 35407 ft | 417 kts | 261° |
| 2026-05-03 20:34 | 43.05283 | -58.56377 | 35403 ft | 418 kts | 261° |
| 2026-05-03 20:35 | 43.05037 | -58.64294 | 35403 ft | 417 kts | 261° |
| 2026-05-03 20:35 | 43.04789 | -58.72179 | 35398 ft | 418 kts | 261° |
| 2026-05-03 20:36 | 43.04533 | -58.80118 | 35391 ft | 418 kts | 261° |
| 2026-05-03 20:36 | 43.04272 | -58.88063 | 35396 ft | 418 kts | 261° |
| 2026-05-03 20:37 | 43.04005 | -58.96022 | 35384 ft | 419 kts | 261° |
| 2026-05-03 20:37 | 43.03731 | -59.03974 | 35384 ft | 419 kts | 261° |
| 2026-05-03 20:38 | 43.03451 | -59.11927 | 35386 ft | 419 kts | 260° |
| 2026-05-03 20:38 | 43.03168 | -59.19896 | 35376 ft | 419 kts | 260° |
| 2026-05-03 20:39 | 43.02878 | -59.27858 | 35373 ft | 419 kts | 260° |
| 2026-05-03 20:39 | 43.02584 | -59.35817 | 35375 ft | 419 kts | 260° |
| 2026-05-03 20:40 | 43.02283 | -59.43731 | 35374 ft | 419 kts | 259° |
| 2026-05-03 20:40 | 43.01976 | -59.51692 | 35363 ft | 419 kts | 259° |
| 2026-05-03 20:41 | 43.01665 | -59.59653 | 35363 ft | 419 kts | 259° |
| 2026-05-03 20:41 | 43.01347 | -59.67615 | 35363 ft | 419 kts | 259° |
| 2026-05-03 20:42 | 43.01025 | -59.75576 | 35362 ft | 419 kts | 259° |
| 2026-05-03 20:42 | 43.00697 | -59.83488 | 35363 ft | 419 kts | 259° |
| 2026-05-03 20:43 | 43.00364 | -59.91449 | 35364 ft | 420 kts | 259° |
| 2026-05-03 20:43 | 43.00026 | -59.99410 | 35364 ft | 420 kts | 259° |
| 2026-05-03 20:44 | 42.99783 | -60.07397 | 35354 ft | 422 kts | 260° |
| 2026-05-03 20:44 | 42.99623 | -60.15412 | 35362 ft | 422 kts | 260° |
| 2026-05-03 20:45 | 42.99454 | -60.23441 | 35358 ft | 422 kts | 260° |
| 2026-05-03 20:45 | 42.99270 | -60.31459 | 35353 ft | 422 kts | 259° |
| 2026-05-03 20:46 | 42.99074 | -60.39476 | 35353 ft | 422 kts | 259° |
| 2026-05-03 20:46 | 42.98870 | -60.47432 | 35359 ft | 422 kts | 259° |
| 2026-05-03 20:47 | 42.98658 | -60.55455 | 35360 ft | 422 kts | 259° |
| 2026-05-03 20:47 | 42.98445 | -60.63476 | 35364 ft | 421 kts | 261° |
| 2026-05-03 20:47 | 42.98834 | -60.67439 | 35359 ft | 430 kts | 279° |
| 2026-05-03 20:48 | 43.00255 | -60.71099 | 35365 ft | 442 kts | 295° |
| 2026-05-03 20:48 | 43.02298 | -60.74289 | 35372 ft | 453 kts | 304° |
| 2026-05-03 20:48 | 43.04706 | -60.77073 | 35375 ft | 466 kts | 312° |
| 2026-05-03 20:48 | 43.07447 | -60.79542 | 35371 ft | 478 kts | 320° |
| 2026-05-03 20:49 | 43.10510 | -60.81494 | 35352 ft | 495 kts | 332° |
| 2026-05-03 20:49 | 43.17124 | -60.84223 | 35361 ft | 481 kts | 317° |
| 2026-05-03 20:49 | 43.19640 | -60.87017 | 35369 ft | 454 kts | 297° |
| 2026-05-03 20:50 | 43.21186 | -60.90610 | 35374 ft | 426 kts | 276° |
| 2026-05-03 20:50 | 43.21711 | -60.94491 | 35379 ft | 410 kts | 263° |
| 2026-05-03 20:50 | 43.21793 | -60.98404 | 35376 ft | 413 kts | 261° |
| 2026-05-03 20:51 | 43.21624 | -61.06332 | 35376 ft | 418 kts | 256° |
| 2026-05-03 20:51 | 43.21008 | -61.14333 | 35378 ft | 424 kts | 255° |
| 2026-05-03 20:52 | 43.20350 | -61.22373 | 35363 ft | 425 kts | 255° |
| 2026-05-03 20:52 | 43.19846 | -61.26304 | 35373 ft | 412 kts | 246° |
| 2026-05-03 20:52 | 43.18988 | -61.29974 | 35380 ft | 410 kts | 244° |
| 2026-05-03 20:53 | 43.17362 | -61.37501 | 35378 ft | 415 kts | 249° |
| 2026-05-03 20:53 | 43.16316 | -61.45346 | 35420 ft | 420 kts | 253° |
| 2026-05-03 20:54 | 43.15636 | -61.53299 | 35491 ft | 421 kts | 255° |
| 2026-05-03 20:54 | 43.14788 | -61.65301 | 35515 ft | 422 kts | 255° |
| 2026-05-03 20:55 | 43.14224 | -61.73248 | 35529 ft | 422 kts | 255° |
| 2026-05-03 20:55 | 43.13643 | -61.81238 | 35539 ft | 422 kts | 255° |
| 2026-05-03 20:56 | 43.13051 | -61.89229 | 35550 ft | 422 kts | 255° |
| 2026-05-03 20:56 | 43.12452 | -61.97220 | 35564 ft | 422 kts | 255° |
| 2026-05-03 20:57 | 43.11848 | -62.05218 | 35573 ft | 422 kts | 254° |
| 2026-05-03 20:57 | 43.11240 | -62.13181 | 35586 ft | 423 kts | 254° |
| 2026-05-03 20:58 | 43.10624 | -62.21191 | 35601 ft | 424 kts | 254° |
| 2026-05-03 20:58 | 43.09999 | -62.29211 | 35615 ft | 424 kts | 254° |
| 2026-05-03 20:59 | 43.09369 | -62.37245 | 35630 ft | 424 kts | 254° |
| 2026-05-03 20:59 | 43.08734 | -62.45275 | 35632 ft | 425 kts | 254° |
| 2026-05-03 21:00 | 43.08306 | -62.50643 | 35639 ft | 425 kts | 254° |
| 2026-05-03 21:00 | 43.07447 | -62.61328 | 35656 ft | 425 kts | 254° |
| 2026-05-03 21:01 | 43.06795 | -62.69360 | 35664 ft | 424 kts | 254° |
| 2026-05-03 21:01 | 43.06136 | -62.77389 | 35673 ft | 424 kts | 254° |
| 2026-05-03 21:02 | 43.05472 | -62.85414 | 35682 ft | 424 kts | 254° |
| 2026-05-03 21:02 | 43.04808 | -62.93373 | 35688 ft | 424 kts | 254° |
| 2026-05-03 21:03 | 43.04133 | -63.01395 | 35704 ft | 424 kts | 254° |
| 2026-05-03 21:03 | 43.03456 | -63.09392 | 35760 ft | 424 kts | 254° |
| 2026-05-03 21:04 | 43.02769 | -63.17407 | 35764 ft | 425 kts | 253° |
| 2026-05-03 21:04 | 43.02075 | -63.25442 | 35786 ft | 426 kts | 253° |
| 2026-05-03 21:05 | 43.01378 | -63.33442 | 35794 ft | 427 kts | 253° |
| 2026-05-03 21:05 | 43.00673 | -63.41489 | 35795 ft | 427 kts | 253° |
| 2026-05-03 21:06 | 42.99959 | -63.49560 | 35800 ft | 428 kts | 253° |
| 2026-05-03 21:06 | 42.99239 | -63.57634 | 35771 ft | 429 kts | 253° |
| 2026-05-03 21:07 | 42.98511 | -63.65727 | 35736 ft | 429 kts | 253° |
| 2026-05-03 21:07 | 42.97776 | -63.73831 | 35718 ft | 428 kts | 253° |
| 2026-05-03 21:08 | 42.97044 | -63.81889 | 35724 ft | 427 kts | 253° |
| 2026-05-03 21:08 | 42.96309 | -63.89880 | 35721 ft | 426 kts | 253° |
| 2026-05-03 21:09 | 42.95565 | -63.97901 | 35698 ft | 427 kts | 255° |
| 2026-05-03 21:09 | 42.94792 | -64.06047 | 35710 ft | 438 kts | 256° |
| 2026-05-03 21:10 | 42.94136 | -64.12981 | 35686 ft | 446 kts | 256° |
| 2026-05-03 21:10 | 42.93346 | -64.21366 | 35672 ft | 445 kts | 256° |
| 2026-05-03 21:11 | 42.92550 | -64.29741 | 35665 ft | 445 kts | 256° |
| 2026-05-03 21:11 | 42.91745 | -64.38106 | 35656 ft | 444 kts | 256° |
| 2026-05-03 21:12 | 42.90934 | -64.46451 | 35655 ft | 443 kts | 256° |
| 2026-05-03 21:12 | 42.90119 | -64.54783 | 35640 ft | 443 kts | 256° |
| 2026-05-03 21:13 | 42.89297 | -64.63117 | 35628 ft | 443 kts | 256° |
| 2026-05-03 21:13 | 42.88471 | -64.71426 | 35621 ft | 443 kts | 256° |
| 2026-05-03 21:14 | 42.87636 | -64.79753 | 35616 ft | 443 kts | 256° |
| 2026-05-03 21:14 | 42.86797 | -64.88074 | 35613 ft | 443 kts | 256° |
| 2026-05-03 21:15 | 42.85954 | -64.96362 | 35602 ft | 444 kts | 256° |
| 2026-05-03 21:15 | 42.85096 | -65.04728 | 35502 ft | 447 kts | 256° |
| 2026-05-03 21:16 | 42.84234 | -65.13113 | 35509 ft | 447 kts | 257° |
| 2026-05-03 21:16 | 42.83361 | -65.21503 | 35496 ft | 447 kts | 257° |
| 2026-05-03 21:17 | 42.82485 | -65.29870 | 35493 ft | 446 kts | 257° |
| 2026-05-03 21:17 | 42.81602 | -65.38247 | 35501 ft | 446 kts | 257° |
| 2026-05-03 21:18 | 42.80713 | -65.46609 | 35493 ft | 446 kts | 257° |
| 2026-05-03 21:18 | 42.79824 | -65.54935 | 35501 ft | 446 kts | 257° |
| 2026-05-03 21:19 | 42.79606 | -65.59123 | 35477 ft | 442 kts | 270° |
| 2026-05-03 21:19 | 42.80317 | -65.63175 | 35485 ft | 442 kts | 286° |
| 2026-05-03 21:19 | 42.81810 | -65.66826 | 35496 ft | 444 kts | 298° |
| 2026-05-03 21:19 | 42.83836 | -65.70065 | 35499 ft | 453 kts | 308° |
| 2026-05-03 21:20 | 42.89040 | -65.75157 | 35487 ft | 474 kts | 329° |
| 2026-05-03 21:20 | 42.92167 | -65.76543 | 35483 ft | 486 kts | 345° |
| 2026-05-03 21:20 | 42.95585 | -65.76709 | 35498 ft | 498 kts | 4° |
| 2026-05-03 21:21 | 42.98948 | -65.75452 | 35487 ft | 505 kts | 24° |
| 2026-05-03 21:21 | 43.01927 | -65.72934 | 35495 ft | 506 kts | 41° |
| 2026-05-03 21:21 | 43.04379 | -65.69471 | 35495 ft | 505 kts | 54° |
| 2026-05-03 21:21 | 43.06296 | -65.65480 | 35497 ft | 502 kts | 65° |
| 2026-05-03 21:22 | 43.07556 | -65.61073 | 35479 ft | 494 kts | 84° |
| 2026-05-03 21:22 | 43.08094 | -65.56465 | 35518 ft | 489 kts | 88° |
| 2026-05-03 21:22 | 43.08970 | -65.47251 | 35502 ft | 493 kts | 87° |
| 2026-05-03 21:23 | 43.09957 | -65.37914 | 35500 ft | 497 kts | 86° |
| 2026-05-03 21:23 | 43.11021 | -65.28551 | 35490 ft | 499 kts | 86° |
| 2026-05-03 21:24 | 43.12086 | -65.19176 | 35481 ft | 498 kts | 86° |
| 2026-05-03 21:24 | 43.12582 | -65.09884 | 35481 ft | 476 kts | 107° |
| 2026-05-03 21:25 | 43.11655 | -65.05640 | 35488 ft | 457 kts | 124° |
| 2026-05-03 21:25 | 43.10021 | -65.02015 | 35498 ft | 440 kts | 137° |
| 2026-05-03 21:25 | 43.07916 | -64.99068 | 35495 ft | 428 kts | 149° |
| 2026-05-03 21:25 | 43.05505 | -64.96775 | 35489 ft | 418 kts | 159° |
| 2026-05-03 21:26 | 43.00199 | -64.94262 | 35483 ft | 400 kts | 179° |
| 2026-05-03 21:26 | 42.97448 | -64.94174 | 35486 ft | 393 kts | 190° |
| 2026-05-03 21:26 | 42.94791 | -64.94922 | 35487 ft | 388 kts | 201° |
| 2026-05-03 21:27 | 42.92344 | -64.96429 | 35490 ft | 386 kts | 212° |
| 2026-05-03 21:27 | 42.90175 | -64.98572 | 35491 ft | 386 kts | 221° |
| 2026-05-03 21:27 | 42.86671 | -65.04153 | 35491 ft | 391 kts | 233° |
| 2026-05-03 21:28 | 42.85318 | -65.07381 | 35484 ft | 396 kts | 244° |
| 2026-05-03 21:28 | 42.84641 | -65.11051 | 35502 ft | 402 kts | 256° |
| 2026-05-03 21:28 | 42.83887 | -65.18584 | 35495 ft | 405 kts | 256° |
| 2026-05-03 21:29 | 42.83093 | -65.26199 | 35511 ft | 407 kts | 256° |
| 2026-05-03 21:29 | 42.82242 | -65.33827 | 35503 ft | 407 kts | 256° |
| 2026-05-03 21:30 | 42.81381 | -65.41392 | 35486 ft | 401 kts | 256° |
| 2026-05-03 21:30 | 42.80520 | -65.48892 | 35495 ft | 400 kts | 256° |
| 2026-05-03 21:31 | 42.79702 | -65.56392 | 35486 ft | 403 kts | 262° |
| 2026-05-03 21:31 | 42.79953 | -65.60226 | 35504 ft | 415 kts | 277° |
| 2026-05-03 21:31 | 42.80897 | -65.63989 | 35503 ft | 426 kts | 287° |
| 2026-05-03 21:32 | 42.84179 | -65.70914 | 35502 ft | 446 kts | 304° |
| 2026-05-03 21:32 | 42.86480 | -65.73833 | 35493 ft | 459 kts | 317° |
| 2026-05-03 21:32 | 42.89308 | -65.76010 | 35487 ft | 475 kts | 333° |
| 2026-05-03 21:33 | 42.92574 | -65.77046 | 35493 ft | 490 kts | 352° |
| 2026-05-03 21:33 | 42.96005 | -65.76727 | 35492 ft | 501 kts | 10° |
| 2026-05-03 21:33 | 42.99295 | -65.75126 | 35494 ft | 507 kts | 27° |
| 2026-05-03 21:33 | 43.02233 | -65.72448 | 35492 ft | 509 kts | 42° |
| 2026-05-03 21:34 | 43.04625 | -65.68965 | 35499 ft | 508 kts | 56° |
| 2026-05-03 21:34 | 43.06471 | -65.64868 | 35493 ft | 505 kts | 69° |
| 2026-05-03 21:34 | 43.07488 | -65.60344 | 35479 ft | 492 kts | 86° |
| 2026-05-03 21:34 | 43.07959 | -65.55706 | 35494 ft | 492 kts | 88° |
| 2026-05-03 21:35 | 43.08854 | -65.46390 | 35492 ft | 495 kts | 87° |
| 2026-05-03 21:35 | 43.09863 | -65.37061 | 35486 ft | 496 kts | 86° |
| 2026-05-03 21:36 | 43.10929 | -65.27731 | 35485 ft | 496 kts | 86° |
| 2026-05-03 21:36 | 43.11979 | -65.18426 | 35483 ft | 494 kts | 87° |
| 2026-05-03 21:37 | 43.12213 | -65.09269 | 35483 ft | 467 kts | 111° |
| 2026-05-03 21:37 | 43.11107 | -65.05198 | 35485 ft | 449 kts | 127° |
| 2026-05-03 21:37 | 43.09354 | -65.01760 | 35503 ft | 433 kts | 140° |
| 2026-05-03 21:38 | 43.07215 | -64.99020 | 35494 ft | 422 kts | 151° |
| 2026-05-03 21:38 | 43.04773 | -64.96875 | 35498 ft | 413 kts | 160° |
| 2026-05-03 21:38 | 43.02146 | -64.95391 | 35497 ft | 405 kts | 171° |
| 2026-05-03 21:38 | 42.99409 | -64.94656 | 35492 ft | 397 kts | 181° |
| 2026-05-03 21:39 | 42.96677 | -64.94759 | 35488 ft | 390 kts | 193° |
| 2026-05-03 21:39 | 42.94071 | -64.95702 | 35490 ft | 387 kts | 204° |
| 2026-05-03 21:39 | 42.89597 | -64.99674 | 35493 ft | 387 kts | 224° |
| 2026-05-03 21:40 | 42.86205 | -65.05429 | 35499 ft | 393 kts | 235° |
| 2026-05-03 21:40 | 42.84995 | -65.08784 | 35486 ft | 400 kts | 250° |
| 2026-05-03 21:40 | 42.84484 | -65.12527 | 35521 ft | 403 kts | 256° |
| 2026-05-03 21:41 | 42.83730 | -65.20128 | 35502 ft | 405 kts | 256° |
| 2026-05-03 21:41 | 42.82925 | -65.27742 | 35497 ft | 405 kts | 256° |
| 2026-05-03 21:42 | 42.82074 | -65.35346 | 35496 ft | 406 kts | 256° |
| 2026-05-03 21:42 | 42.81211 | -65.42894 | 35491 ft | 405 kts | 256° |
| 2026-05-03 21:43 | 42.80339 | -65.50477 | 35494 ft | 404 kts | 256° |
| 2026-05-03 21:43 | 42.79670 | -65.58070 | 35487 ft | 409 kts | 269° |
| 2026-05-03 21:44 | 42.80230 | -65.61914 | 35510 ft | 421 kts | 282° |
| 2026-05-03 21:44 | 42.81426 | -65.65601 | 35517 ft | 431 kts | 292° |
| 2026-05-03 21:44 | 42.85143 | -65.72215 | 35496 ft | 451 kts | 310° |
| 2026-05-03 21:45 | 42.87670 | -65.74835 | 35483 ft | 464 kts | 323° |
| 2026-05-03 21:45 | 42.90645 | -65.76554 | 35491 ft | 478 kts | 341° |
| 2026-05-03 21:45 | 42.93988 | -65.77069 | 35490 ft | 491 kts | 359° |
| 2026-05-03 21:45 | 42.97373 | -65.76227 | 35501 ft | 500 kts | 17° |
| 2026-05-03 21:46 | 43.00517 | -65.74174 | 35517 ft | 504 kts | 33° |
| 2026-05-03 21:46 | 43.03230 | -65.71147 | 35492 ft | 504 kts | 48° |
| 2026-05-03 21:46 | 43.05404 | -65.67390 | 35516 ft | 502 kts | 60° |
| 2026-05-03 21:46 | 43.06974 | -65.63158 | 35481 ft | 497 kts | 76° |
| 2026-05-03 21:47 | 43.07678 | -65.58605 | 35498 ft | 487 kts | 87° |
| 2026-05-03 21:47 | 43.08125 | -65.54021 | 35488 ft | 488 kts | 88° |
| 2026-05-03 21:47 | 43.09026 | -65.44757 | 35500 ft | 492 kts | 87° |
| 2026-05-03 21:48 | 43.10043 | -65.35464 | 35495 ft | 495 kts | 86° |
| 2026-05-03 21:48 | 43.11103 | -65.26202 | 35486 ft | 495 kts | 86° |
| 2026-05-03 21:49 | 43.12152 | -65.16889 | 35484 ft | 494 kts | 87° |
| 2026-05-03 21:49 | 43.12474 | -65.12266 | 35469 ft | 481 kts | 99° |
| 2026-05-03 21:49 | 43.11924 | -65.07862 | 35492 ft | 461 kts | 117° |
| 2026-05-03 21:50 | 43.10579 | -65.03984 | 35488 ft | 444 kts | 132° |
| 2026-05-03 21:50 | 43.08675 | -65.00765 | 35500 ft | 429 kts | 144° |
| 2026-05-03 21:50 | 43.06402 | -64.98194 | 35490 ft | 418 kts | 154° |
| 2026-05-03 21:50 | 43.03896 | -64.96277 | 35486 ft | 409 kts | 164° |
| 2026-05-03 21:51 | 42.98505 | -64.94616 | 35488 ft | 392 kts | 185° |
| 2026-05-03 21:51 | 42.95820 | -64.95006 | 35491 ft | 386 kts | 197° |
| 2026-05-03 21:51 | 42.93295 | -64.96187 | 35495 ft | 383 kts | 207° |
| 2026-05-03 21:52 | 42.89050 | -65.00446 | 35502 ft | 385 kts | 226° |
| 2026-05-03 21:52 | 42.85824 | -65.06310 | 35492 ft | 391 kts | 238° |
| 2026-05-03 21:53 | 42.84810 | -65.09766 | 35480 ft | 399 kts | 254° |
| 2026-05-03 21:53 | 42.84386 | -65.13511 | 35517 ft | 401 kts | 256° |
| 2026-05-03 21:53 | 42.83635 | -65.21065 | 35492 ft | 403 kts | 256° |
| 2026-05-03 21:54 | 42.82826 | -65.28640 | 35502 ft | 404 kts | 256° |
| 2026-05-03 21:54 | 42.81973 | -65.36217 | 35494 ft | 405 kts | 256° |
| 2026-05-03 21:55 | 42.81106 | -65.43799 | 35495 ft | 404 kts | 256° |
| 2026-05-03 21:55 | 42.80245 | -65.51371 | 35502 ft | 410 kts | 256° |
| 2026-05-03 21:56 | 42.79399 | -65.59158 | 35520 ft | 426 kts | 257° |
| 2026-05-03 21:56 | 42.78526 | -65.67272 | 35517 ft | 439 kts | 257° |
| 2026-05-03 21:57 | 42.77623 | -65.75598 | 35514 ft | 449 kts | 257° |
| 2026-05-03 21:57 | 42.76706 | -65.84007 | 35495 ft | 449 kts | 257° |
| 2026-05-03 21:58 | 42.75779 | -65.92401 | 35503 ft | 448 kts | 257° |
| 2026-05-03 21:58 | 42.75003 | -65.99371 | 35509 ft | 448 kts | 257° |
| 2026-05-03 21:59 | 42.74063 | -66.07740 | 35502 ft | 447 kts | 257° |
| 2026-05-03 21:59 | 42.73119 | -66.16100 | 35539 ft | 447 kts | 257° |
| 2026-05-03 22:00 | 42.72171 | -66.24449 | 35551 ft | 447 kts | 257° |
| 2026-05-03 22:00 | 42.71215 | -66.32805 | 35554 ft | 447 kts | 257° |
| 2026-05-03 22:01 | 42.70259 | -66.41110 | 35562 ft | 447 kts | 257° |
| 2026-05-03 22:01 | 42.69290 | -66.49472 | 35567 ft | 448 kts | 257° |
| 2026-05-03 22:02 | 42.68312 | -66.57853 | 35565 ft | 449 kts | 257° |
| 2026-05-03 22:02 | 42.67329 | -66.66229 | 35574 ft | 449 kts | 257° |
| 2026-05-03 22:03 | 42.66339 | -66.74606 | 35571 ft | 449 kts | 257° |
| 2026-05-03 22:03 | 42.65342 | -66.82997 | 35583 ft | 449 kts | 257° |
| 2026-05-03 22:04 | 42.64343 | -66.91336 | 35585 ft | 450 kts | 257° |
| 2026-05-03 22:04 | 42.63905 | -66.99857 | 35598 ft | 455 kts | 267° |
| 2026-05-03 22:05 | 42.64463 | -67.08457 | 35598 ft | 461 kts | 276° |
| 2026-05-03 22:05 | 42.65714 | -67.17016 | 35602 ft | 462 kts | 277° |
| 2026-05-03 22:06 | 42.67012 | -67.25564 | 35606 ft | 462 kts | 277° |
| 2026-05-03 22:06 | 42.68274 | -67.34072 | 35611 ft | 462 kts | 277° |
| 2026-05-03 22:07 | 42.69515 | -67.42630 | 35617 ft | 461 kts | 276° |
| 2026-05-03 22:07 | 42.70742 | -67.51188 | 35616 ft | 461 kts | 276° |
| 2026-05-03 22:08 | 42.71962 | -67.59745 | 35629 ft | 461 kts | 276° |
| 2026-05-03 22:08 | 42.73162 | -67.68305 | 35632 ft | 459 kts | 275° |
| 2026-05-03 22:09 | 42.73594 | -67.76894 | 35641 ft | 454 kts | 268° |
| 2026-05-03 22:10 | 42.73793 | -67.89805 | 35648 ft | 456 kts | 268° |
| 2026-05-03 22:10 | 42.73945 | -67.98422 | 35659 ft | 456 kts | 268° |
| 2026-05-03 22:11 | 42.74104 | -68.07002 | 35670 ft | 456 kts | 268° |
| 2026-05-03 22:11 | 42.74261 | -68.15635 | 35677 ft | 456 kts | 268° |
| 2026-05-03 22:12 | 42.74411 | -68.24270 | 35686 ft | 457 kts | 268° |
| 2026-05-03 22:12 | 42.74556 | -68.32909 | 35684 ft | 457 kts | 268° |
| 2026-05-03 22:13 | 42.74690 | -68.41548 | 35697 ft | 456 kts | 268° |
| 2026-05-03 22:13 | 42.74819 | -68.50186 | 35728 ft | 456 kts | 268° |
| 2026-05-03 22:14 | 42.74943 | -68.58833 | 35730 ft | 457 kts | 268° |
| 2026-05-03 22:14 | 42.75060 | -68.67461 | 35729 ft | 453 kts | 268° |
| 2026-05-03 22:14 | 42.75117 | -68.71710 | 35604 ft | 446 kts | 268° |
| 2026-05-03 22:15 | 42.75169 | -68.75882 | 34936 ft | 447 kts | 268° |
| 2026-05-03 22:15 | 42.75221 | -68.80118 | 34232 ft | 447 kts | 268° |
| 2026-05-03 22:15 | 42.75270 | -68.84356 | 33388 ft | 449 kts | 268° |
| 2026-05-03 22:15 | 42.75318 | -68.88596 | 32776 ft | 446 kts | 268° |
| 2026-05-03 22:16 | 42.75365 | -68.92806 | 32175 ft | 444 kts | 268° |
| 2026-05-03 22:16 | 42.75410 | -68.96990 | 31591 ft | 441 kts | 268° |
| 2026-05-03 22:16 | 42.75454 | -69.01144 | 31019 ft | 438 kts | 269° |
| 2026-05-03 22:16 | 42.75495 | -69.05271 | 30454 ft | 435 kts | 269° |
| 2026-05-03 22:17 | 42.75534 | -69.09370 | 29888 ft | 432 kts | 269° |
| 2026-05-03 22:17 | 42.75571 | -69.13443 | 29344 ft | 429 kts | 269° |
| 2026-05-03 22:17 | 42.75606 | -69.17492 | 28761 ft | 427 kts | 269° |
| 2026-05-03 22:17 | 42.75641 | -69.21517 | 28193 ft | 424 kts | 269° |
| 2026-05-03 22:18 | 42.75674 | -69.25528 | 27619 ft | 422 kts | 269° |
| 2026-05-03 22:18 | 42.75705 | -69.29504 | 27049 ft | 419 kts | 269° |
| 2026-05-03 22:18 | 42.75735 | -69.33453 | 26486 ft | 416 kts | 269° |
| 2026-05-03 22:18 | 42.75764 | -69.37374 | 25929 ft | 413 kts | 269° |
| 2026-05-03 22:19 | 42.75790 | -69.41233 | 25380 ft | 410 kts | 269° |
| 2026-05-03 22:19 | 42.75815 | -69.45101 | 24826 ft | 407 kts | 270° |
| 2026-05-03 22:19 | 42.75840 | -69.48940 | 24282 ft | 404 kts | 270° |
| 2026-05-03 22:19 | 42.75862 | -69.52757 | 23748 ft | 401 kts | 270° |
| 2026-05-03 22:20 | 42.75883 | -69.56544 | 23209 ft | 398 kts | 270° |
| 2026-05-03 22:20 | 42.75902 | -69.60293 | 22679 ft | 394 kts | 270° |
| 2026-05-03 22:20 | 42.75920 | -69.64009 | 22151 ft | 391 kts | 270° |
| 2026-05-03 22:20 | 42.75936 | -69.67694 | 21633 ft | 388 kts | 270° |
| 2026-05-03 22:21 | 42.75952 | -69.71351 | 21107 ft | 385 kts | 270° |
| 2026-05-03 22:21 | 42.75967 | -69.74982 | 20586 ft | 383 kts | 270° |
| 2026-05-03 22:21 | 42.75979 | -69.78550 | 20050 ft | 380 kts | 270° |
| 2026-05-03 22:21 | 42.75991 | -69.82133 | 19533 ft | 377 kts | 270° |
| 2026-05-03 22:22 | 42.76002 | -69.85689 | 19021 ft | 374 kts | 270° |
| 2026-05-03 22:22 | 42.76012 | -69.89219 | 18523 ft | 372 kts | 270° |
| 2026-05-03 22:22 | 42.76021 | -69.92727 | 18013 ft | 368 kts | 270° |
| 2026-05-03 22:22 | 42.76020 | -69.96192 | 17531 ft | 362 kts | 268° |
| 2026-05-03 22:23 | 42.75533 | -69.99508 | 17041 ft | 359 kts | 249° |
| 2026-05-03 22:23 | 42.74233 | -70.02406 | 16574 ft | 361 kts | 233° |
| 2026-05-03 22:23 | 42.72420 | -70.04788 | 16082 ft | 365 kts | 221° |
| 2026-05-03 22:23 | 42.70190 | -70.06466 | 15577 ft | 370 kts | 205° |
| 2026-05-03 22:24 | 42.67761 | -70.07607 | 15114 ft | 366 kts | 204° |
| 2026-05-03 22:24 | 42.65593 | -70.09178 | 14702 ft | 347 kts | 225° |
| 2026-05-03 22:24 | 42.64079 | -70.11619 | 14496 ft | 329 kts | 243° |
| 2026-05-03 22:24 | 42.63112 | -70.14309 | 14384 ft | 317 kts | 249° |
| 2026-05-03 22:25 | 42.62222 | -70.16968 | 14243 ft | 302 kts | 249° |
| 2026-05-03 22:25 | 42.61359 | -70.19530 | 14104 ft | 295 kts | 249° |
| 2026-05-03 22:25 | 42.60523 | -70.22022 | 13986 ft | 286 kts | 249° |
| 2026-05-03 22:25 | 42.59706 | -70.24445 | 13737 ft | 278 kts | 252° |
| 2026-05-03 22:26 | 42.59063 | -70.26904 | 13483 ft | 277 kts | 256° |
| 2026-05-03 22:26 | 42.58480 | -70.29401 | 13194 ft | 278 kts | 256° |
| 2026-05-03 22:26 | 42.57882 | -70.31897 | 12905 ft | 279 kts | 256° |
| 2026-05-03 22:26 | 42.57266 | -70.34412 | 12609 ft | 280 kts | 255° |
| 2026-05-03 22:27 | 42.56651 | -70.36910 | 12304 ft | 278 kts | 256° |
| 2026-05-03 22:27 | 42.56038 | -70.39388 | 12015 ft | 274 kts | 255° |
| 2026-05-03 22:27 | 42.55410 | -70.41824 | 11709 ft | 271 kts | 256° |
| 2026-05-03 22:27 | 42.54791 | -70.44246 | 11432 ft | 269 kts | 256° |
| 2026-05-03 22:28 | 42.54190 | -70.46651 | 11147 ft | 269 kts | 256° |
| 2026-05-03 22:28 | 42.53583 | -70.49071 | 10863 ft | 272 kts | 256° |
| 2026-05-03 22:28 | 42.52967 | -70.51484 | 10569 ft | 275 kts | 256° |
| 2026-05-03 22:28 | 42.52374 | -70.53949 | 10263 ft | 274 kts | 258° |
| 2026-05-03 22:29 | 42.51806 | -70.56426 | 9969 ft | 276 kts | 258° |
| 2026-05-03 22:29 | 42.51232 | -70.58909 | 9719 ft | 273 kts | 258° |
| 2026-05-03 22:29 | 42.50673 | -70.61352 | 9392 ft | 269 kts | 259° |
| 2026-05-03 22:29 | 42.50127 | -70.63794 | 9097 ft | 272 kts | 259° |
| 2026-05-03 22:30 | 42.49574 | -70.66189 | 8797 ft | 259 kts | 259° |
| 2026-05-03 22:30 | 42.49046 | -70.68486 | 8523 ft | 252 kts | 259° |
| 2026-05-03 22:30 | 42.48529 | -70.70724 | 8249 ft | 246 kts | 259° |
| 2026-05-03 22:30 | 42.48011 | -70.72927 | 7974 ft | 244 kts | 259° |
| 2026-05-03 22:31 | 42.47505 | -70.75112 | 7705 ft | 243 kts | 259° |
| 2026-05-03 22:31 | 42.46996 | -70.77294 | 7417 ft | 241 kts | 259° |
| 2026-05-03 22:31 | 42.46496 | -70.79452 | 7143 ft | 239 kts | 259° |
| 2026-05-03 22:31 | 42.45887 | -70.81525 | 6834 ft | 240 kts | 242° |
| 2026-05-03 22:32 | 42.44591 | -70.83023 | 6563 ft | 254 kts | 213° |
| 2026-05-03 22:32 | 42.42931 | -70.83813 | 6305 ft | 256 kts | 204° |
| 2026-05-03 22:32 | 42.41235 | -70.84517 | 6032 ft | 255 kts | 204° |
| 2026-05-03 22:32 | 42.39545 | -70.85221 | 5754 ft | 253 kts | 201° |
| 2026-05-03 22:33 | 42.37781 | -70.85281 | 5404 ft | 259 kts | 170° |
| 2026-05-03 22:33 | 42.36050 | -70.84629 | 5202 ft | 258 kts | 168° |
| 2026-05-03 22:33 | 42.34326 | -70.83999 | 5042 ft | 254 kts | 165° |
| 2026-05-03 22:33 | 42.32806 | -70.82761 | 5001 ft | 258 kts | 133° |
| 2026-05-03 22:34 | 42.31564 | -70.80992 | 5014 ft | 261 kts | 134° |
| 2026-05-03 22:34 | 42.30281 | -70.79262 | 4996 ft | 259 kts | 135° |
| 2026-05-03 22:34 | 42.28998 | -70.77563 | 4985 ft | 256 kts | 137° |
| 2026-05-03 22:34 | 42.27490 | -70.76334 | 4997 ft | 255 kts | 169° |
| 2026-05-03 22:35 | 42.25766 | -70.76237 | 4924 ft | 242 kts | 201° |
| 2026-05-03 22:35 | 42.24247 | -70.77013 | 4666 ft | 228 kts | 213° |
| 2026-05-03 22:35 | 42.23017 | -70.78135 | 4356 ft | 206 kts | 242° |
| 2026-05-03 22:35 | 42.22571 | -70.79782 | 4148 ft | 177 kts | 281° |
| 2026-05-03 22:36 | 42.22991 | -70.81258 | 4108 ft | 167 kts | 303° |
| 2026-05-03 22:36 | 42.23609 | -70.82571 | 4062 ft | 165 kts | 307° |
| 2026-05-03 22:36 | 42.24310 | -70.83804 | 3919 ft | 167 kts | 309° |
| 2026-05-03 22:36 | 42.25046 | -70.85053 | 3521 ft | 170 kts | 311° |
| 2026-05-03 22:37 | 42.25818 | -70.86209 | 3134 ft | 162 kts | 314° |
| 2026-05-03 22:37 | 42.26596 | -70.87277 | 2742 ft | 155 kts | 315° |
| 2026-05-03 22:37 | 42.27367 | -70.88315 | 2577 ft | 159 kts | 314° |
| 2026-05-03 22:37 | 42.28140 | -70.89347 | 2419 ft | 152 kts | 314° |
| 2026-05-03 22:38 | 42.28875 | -70.90329 | 2241 ft | 145 kts | 313° |
| 2026-05-03 22:38 | 42.29587 | -70.91257 | 1880 ft | 143 kts | 314° |
| 2026-05-03 22:38 | 42.30288 | -70.92194 | 1425 ft | 135 kts | 307° |
| 2026-05-03 22:38 | 42.30942 | -70.93110 | 1335 ft | 144 kts | 310° |
| 2026-05-03 22:39 | 42.31668 | -70.94077 | 1137 ft | 149 kts | 315° |
| 2026-05-03 22:39 | 42.32412 | -70.95023 | 949 ft | 144 kts | 311° |
| 2026-05-03 22:39 | 42.33119 | -70.95994 | 683 ft | 147 kts | 313° |
| 2026-05-03 22:39 | 42.33839 | -70.96955 | 495 ft | 138 kts | 313° |
| 2026-05-03 22:40 | 42.34505 | -70.97861 | 322 ft | 136 kts | 315° |
| 2026-05-03 22:40 | 42.35183 | -70.98772 | 219 ft | 137 kts | 315° |
| 2026-05-03 22:40 | 42.35803 | -70.99625 | 32 ft | 114 kts | 314° |
| 2026-05-03 22:40 | 42.36261 | -71.00234 | 28 ft | 70 kts | 315° |
| 2026-05-03 22:41 | 42.36496 | -71.00552 | 29 ft | 28 kts | 315° |
| 2026-05-03 22:41 | 42.36642 | -71.00770 | 30 ft | 22 kts | 287° |
| 2026-05-03 22:41 | 42.36566 | -71.00865 | 30 ft | 11 kts | 198° |
| 2026-05-03 22:41 | 42.36484 | -71.00903 | 30 ft | 15 kts | 203° |
| 2026-05-03 22:42 | 42.36365 | -71.00971 | 30 ft | 22 kts | 200° |
| 2026-05-03 22:42 | 42.36203 | -71.01048 | 30 ft | 28 kts | 199° |
| 2026-05-03 22:42 | 42.36020 | -71.01135 | 30 ft | 28 kts | 199° |
| 2026-05-03 22:42 | 42.35863 | -71.01229 | 30 ft | 21 kts | 231° |
| 2026-05-03 22:43 | 42.35864 | -71.01423 | 30 ft | 21 kts | 290° |
| 2026-05-03 22:43 | 42.35896 | -71.01587 | 30 ft | 17 kts | 303° |
| 2026-05-03 22:43 | 42.35984 | -71.01607 | 30 ft | 13 kts | 6° |
| 2026-05-03 22:43 | 42.36023 | -71.01641 | 30 ft | 6 kts | 303° |
| 2026-05-03 22:44 | 42.36040 | -71.01689 | 30 ft | 0 kts | 292° |
| 2026-05-03 22:44 | 42.36044 | -71.01701 | 30 ft | 1 kts | 291° |
| 2026-05-03 22:44 | 42.36044 | -71.01703 | 30 ft | 0 kts | 291° |